Time;durP1;ratioP1;P1;durP2;ratioP2;P2;SDS_P1;SDS_P2;PMS_P1;PMS_P2;Temp;Humidity;BMP_temperature;BMP_pressure;BME280_temperature;BME280_humidity;BME280_pressure;Samples;Min_cycle;Max_cycle;Signal;HPM_P1;HPM_P2
2022/04/01 00:01:45;;;;;;;15.32;10.07;;;;;;;-0.27;100.00;100314.66;7392398;19;20019;-61
2022/04/01 00:04:14;;;;;;;17.50;11.27;;;;;;;-0.18;100.00;100322.28;7387429;19;20025;-57
2022/04/01 00:06:45;;;;;;;15.82;10.75;;;;;;;-0.19;100.00;100314.56;7389482;19;20017;-55
2022/04/01 00:09:14;;;;;;;22.53;11.87;;;;;;;-0.27;100.00;100318.91;7388764;19;20015;-53
2022/04/01 00:11:43;;;;;;;17.65;10.85;;;;;;;-0.27;100.00;100318.91;7389622;19;20012;-58
2022/04/01 00:14:12;;;;;;;18.05;11.20;;;;;;;-0.19;100.00;100325.75;7387924;19;20054;-57
2022/04/01 00:16:41;;;;;;;14.90;10.63;;;;;;;-0.24;100.00;100324.06;7389288;19;20007;-59
2022/04/01 00:19:12;;;;;;;17.50;11.25;;;;;;;-0.20;100.00;100338.59;7387189;19;20019;-60
2022/04/01 00:21:41;;;;;;;16.27;11.10;;;;;;;-0.23;100.00;100331.78;7390849;19;20015;-58
2022/04/01 00:24:13;;;;;;;18.45;10.45;;;;;;;-0.26;100.00;100328.38;7387535;19;20025;-57
2022/04/01 00:26:42;;;;;;;14.40;10.07;;;;;;;-0.30;100.00;100334.41;7390353;19;20021;-60
2022/04/01 00:29:17;;;;;;;14.90;10.85;;;;;;;-0.26;100.00;100330.94;7388201;19;20479;-57
2022/04/01 00:31:48;;;;;;;13.77;9.55;;;;;;;-0.29;100.00;100338.69;7389140;19;20014;-57
2022/04/01 00:34:38;;;;;;;16.63;10.52;;;;;;;-0.25;100.00;100342.97;7389105;19;20014;-56
2022/04/01 00:37:08;;;;;;;15.38;11.38;;;;;;;-0.25;100.00;100336.06;7391069;19;20081;-59
2022/04/01 00:39:41;;;;;;;14.45;10.52;;;;;;;-0.30;100.00;100339.53;7388414;19;20021;-61
2022/04/01 00:42:13;;;;;;;15.20;10.35;;;;;;;-0.37;100.00;100349.06;7392730;19;20010;-59
2022/04/01 00:44:43;;;;;;;15.80;10.88;;;;;;;-0.33;100.00;100345.59;7388260;19;20065;-58
2022/04/01 00:47:14;;;;;;;12.30;9.13;;;;;;;-0.29;100.00;100338.69;7390995;19;20021;-56
2022/04/01 00:49:46;;;;;;;15.02;10.20;;;;;;;-0.31;100.00;100348.16;7386454;19;20029;-61
2022/04/01 00:52:18;;;;;;;15.40;11.00;;;;;;;-0.24;100.00;100350.66;7392200;19;20018;-61
2022/04/01 00:54:50;;;;;;;17.20;12.02;;;;;;;-0.21;100.00;100352.38;7395143;19;20475;-60
2022/04/01 00:57:20;;;;;;;;;;;;;;;-0.30;100.00;100360.16;7395397;19;20094;-56
2022/04/01 00:59:51;;;;;;;14.40;10.25;;;;;;;-0.36;100.00;100361.91;7394166;19;19935;-60
2022/04/01 01:02:20;;;;;;;18.75;10.70;;;;;;;-0.38;100.00;100375.66;7400500;19;20021;-57
2022/04/01 01:04:50;;;;;;;17.17;10.95;;;;;;;-0.40;100.00;100373.09;7391598;19;20019;-60
2022/04/01 01:07:19;;;;;;;17.40;11.52;;;;;;;-0.38;100.00;100360.22;7396211;19;20019;-55
2022/04/01 01:09:52;;;;;;;17.40;11.68;;;;;;;-0.36;100.00;100379.94;7395327;19;20365;-60
2022/04/01 01:12:23;;;;;;;18.00;12.50;;;;;;;-0.48;100.00;100376.59;7392878;19;20014;-60
2022/04/01 01:14:53;;;;;;;18.50;12.35;;;;;;;-0.51;100.00;100371.47;7393317;19;20021;-60
2022/04/01 01:17:22;;;;;;;18.23;12.73;;;;;;;-0.47;100.00;100379.13;7394406;19;20022;-59
2022/04/01 01:19:53;;;;;;;21.17;14.05;;;;;;;-0.47;100.00;100381.72;7391456;19;20021;-59
2022/04/01 01:22:22;;;;;;;22.73;14.60;;;;;;;-0.49;100.00;100380.00;7392210;19;20026;-60
2022/04/01 01:24:54;;;;;;;20.83;13.65;;;;;;;-0.54;100.00;100374.91;7392905;19;20018;-58
2022/04/01 01:27:24;;;;;;;19.58;13.10;;;;;;;-0.52;100.00;100373.16;7392144;19;20089;-58
2022/04/01 01:29:53;;;;;;;20.88;14.48;;;;;;;-0.51;100.00;100376.59;7391404;19;20074;-60
2022/04/01 01:32:22;;;;;;;20.85;13.70;;;;;;;-0.50;100.00;100375.72;7393976;19;20073;-60
2022/04/01 01:34:51;;;;;;;18.75;13.30;;;;;;;-0.51;100.00;100372.31;7393153;19;20104;-59
2022/04/01 01:37:20;;;;;;;18.70;12.65;;;;;;;-0.54;100.00;100370.59;7393478;19;20022;-62
2022/04/01 01:39:49;;;;;;;17.95;12.68;;;;;;;-0.56;100.00;100374.03;7389168;19;20011;-58
2022/04/01 01:42:21;;;;;;;20.10;12.93;;;;;;;-0.52;100.00;100375.72;7391486;19;20014;-60
2022/04/01 01:44:52;;;;;;;17.85;12.18;;;;;;;-0.54;100.00;100383.47;7391606;19;20021;-58
2022/04/01 01:47:20;;;;;;;17.58;11.82;;;;;;;-0.60;100.00;100385.19;7391855;19;20026;-59
2022/04/01 01:55:22;;;;;;;17.05;12.05;;;;;;;-0.67;100.00;100384.41;7388752;19;20491;-61
2022/04/01 01:57:53;;;;;;;16.85;11.65;;;;;;;-0.66;100.00;100388.69;7390914;19;20015;-60
2022/04/01 02:00:23;;;;;;;17.70;12.90;;;;;;;-0.63;100.00;100383.53;7381639;19;20025;-61
2022/04/01 02:02:52;;;;;;;18.75;12.63;;;;;;;-0.62;100.00;100390.34;7385028;19;20019;-59
2022/04/01 02:05:21;;;;;;;17.73;12.35;;;;;;;-0.62;100.00;100397.22;7391926;19;20047;-59
2022/04/01 02:07:53;;;;;;;18.95;12.02;;;;;;;-0.63;100.00;100398.97;7391408;19;20021;-56
2022/04/01 02:10:22;;;;;;;17.15;12.07;;;;;;;-0.60;100.00;100390.34;7392112;19;20014;-56
2022/04/01 02:12:53;;;;;;;17.00;11.75;;;;;;;-0.66;100.00;100398.09;7390425;19;20371;-60
2022/04/01 02:15:23;;;;;;;17.33;11.73;;;;;;;-0.69;100.00;100409.25;7392125;19;20364;-60
2022/04/01 02:17:52;;;;;;;16.50;11.90;;;;;;;-0.74;100.00;100404.16;7390653;19;20025;-59
2022/04/01 02:20:20;;;;;;;14.05;10.40;;;;;;;-0.73;100.00;100405.88;7388388;19;20389;-60
2022/04/01 02:22:50;;;;;;;17.95;12.30;;;;;;;-0.69;100.00;100414.41;7391894;19;20019;-58
2022/04/01 02:25:19;;;;;;;17.70;12.65;;;;;;;-0.63;100.00;100416.09;7391430;19;20365;-60
2022/04/01 02:27:49;;;;;;;18.08;11.88;;;;;;;-0.67;100.00;100417.84;7390598;19;20037;-60
2022/04/01 02:30:20;;;;;;;17.23;11.75;;;;;;;-0.69;100.00;100424.69;7389278;19;20026;-59
2022/04/01 02:33:09;;;;;;;16.38;11.30;;;;;;;-0.74;100.00;100422.16;7390237;19;20015;-61
2022/04/01 02:35:46;;;;;;;15.65;10.95;;;;;;;-0.70;100.00;100426.44;7390407;19;20026;-60
2022/04/01 02:38:15;;;;;;;15.40;11.57;;;;;;;-0.72;100.00;100429.88;7389746;19;20025;-59
2022/04/01 02:40:44;;;;;;;15.43;11.32;;;;;;;-0.72;100.00;100427.28;7388441;19;20018;-59
2022/04/01 02:43:13;;;;;;;16.35;11.70;;;;;;;-0.66;100.00;100428.97;7389512;19;20021;-59
2022/04/01 02:45:49;;;;;;;15.75;11.45;;;;;;;-0.62;100.00;100423.81;7389853;19;20021;-59
2022/04/01 02:48:22;;;;;;;14.73;11.68;;;;;;;-0.64;100.00;100435.00;7389483;19;20010;-60
2022/04/01 02:51:11;;;;;;;20.15;12.27;;;;;;;-0.67;100.00;100430.72;7390653;19;20079;-59
2022/04/01 02:53:40;;;;;;;17.65;11.95;;;;;;;-0.73;100.00;100441.88;7388894;19;20014;-60
2022/04/01 02:56:09;;;;;;;16.60;11.60;;;;;;;-0.61;100.00;100442.69;7389670;19;20391;-60
2022/04/01 02:58:38;;;;;;;16.95;12.30;;;;;;;-0.64;100.00;100446.13;7389217;19;20022;-60
2022/04/01 03:01:10;;;;;;;20.02;13.55;;;;;;;-0.62;100.00;100446.97;7391728;19;20471;-60
2022/04/01 03:03:41;;;;;;;19.25;12.60;;;;;;;-0.63;100.00;100455.56;7392531;19;20030;-60
2022/04/01 03:06:13;;;;;;;18.70;12.77;;;;;;;-0.61;100.00;100453.84;7389264;19;20086;-60
2022/04/01 03:08:43;;;;;;;18.92;13.23;;;;;;;-0.63;100.00;100460.72;7389425;19;20010;-60
2022/04/01 03:11:12;;;;;;;19.20;13.43;;;;;;;-0.61;100.00;100461.56;7389442;19;20091;-59
2022/04/01 03:13:41;;;;;;;17.67;13.15;;;;;;;-0.63;100.00;100454.69;7388468;19;20022;-60
2022/04/01 03:16:31;;;;;;;17.27;12.18;;;;;;;-0.64;100.00;100458.16;7390677;19;20026;-59
2022/04/01 03:19:01;;;;;;;15.80;11.05;;;;;;;-0.75;100.00;100464.16;7390733;19;20011;-60
2022/04/01 03:21:34;;;;;;;16.33;11.75;;;;;;;-0.74;100.00;100465.88;7389105;19;20021;-60
2022/04/01 03:24:03;;;;;;;22.05;12.40;;;;;;;-0.77;100.00;100470.22;7388798;19;20014;-60
2022/04/01 03:26:32;;;;;;;17.08;11.43;;;;;;;-0.75;100.00;100468.47;7389123;19;20007;-60
2022/04/01 03:29:08;;;;;;;21.50;12.73;;;;;;;-0.70;100.00;100470.16;7388669;19;20057;-59
2022/04/01 03:31:42;;;;;;;;;;;;;;;-0.67;100.00;100474.44;7387692;19;20451;-59
2022/04/01 03:34:11;;;;;;;18.60;12.90;;;;;;;-0.68;100.00;100472.72;7387634;19;19915;-60
2022/04/01 03:36:40;;;;;;;20.95;13.35;;;;;;;-0.63;100.00;100485.56;7389765;19;20021;-60
2022/04/01 03:39:09;;;;;;;17.77;12.30;;;;;;;-0.66;100.00;100483.91;7389823;19;20018;-61
2022/04/01 03:41:52;;;;;;;16.85;12.05;;;;;;;-0.69;100.00;100491.59;7388586;19;20369;-61
2022/04/01 03:44:24;;;;;;;19.23;12.52;;;;;;;-0.69;100.00;100489.03;7387421;19;20014;-59
2022/04/01 03:47:05;;;;;;;19.98;13.07;;;;;;;-0.77;100.00;100499.34;7388461;19;20015;-59
2022/04/01 03:49:38;;;;;;;19.02;13.23;;;;;;;-0.77;100.00;100491.63;7387889;19;20014;-62
2022/04/01 03:52:08;;;;;;;20.10;13.57;;;;;;;-0.78;100.00;100502.78;7389087;19;20011;-61
2022/04/01 03:54:43;;;;;;;16.60;13.27;;;;;;;-0.81;100.00;100505.34;7386705;19;20015;-60
2022/04/01 03:57:37;;;;;;;18.50;13.18;;;;;;;-0.80;100.00;100509.66;7390370;19;20015;-59
2022/04/01 04:00:29;;;;;;;19.92;13.00;;;;;;;-0.85;100.00;100516.50;7387467;19;20014;-60
2022/04/01 04:03:04;;;;;;;20.05;12.70;;;;;;;-0.84;100.00;100513.09;7389341;19;20021;-61
2022/04/01 04:05:33;;;;;;;18.60;13.00;;;;;;;-0.75;100.00;100519.91;7389920;19;20018;-62
2022/04/01 04:08:03;;;;;;;17.00;12.05;;;;;;;-0.80;100.00;100525.09;7388885;19;20479;-61
2022/04/01 04:10:34;;;;;;;18.38;12.35;;;;;;;-0.81;100.00;100531.09;7388399;19;20015;-62
2022/04/01 04:13:27;;;;;;;18.40;12.23;;;;;;;-0.84;100.00;100528.53;7388134;19;20527;-61
2022/04/01 04:16:08;;;;;;;18.55;11.85;;;;;;;-0.83;100.00;100530.25;7388119;19;20018;-62
2022/04/01 04:18:47;;;;;;;16.45;11.88;;;;;;;-0.78;100.00;100537.94;7388680;19;20014;-62
2022/04/01 04:21:26;;;;;;;19.10;10.85;;;;;;;-0.75;100.00;100540.50;7385498;19;20011;-60
2022/04/01 04:23:58;;;;;;;13.38;9.95;;;;;;;-0.81;100.00;100545.66;7388948;19;20014;-60
2022/04/01 04:26:35;;;;;;;14.35;10.55;;;;;;;-0.79;100.00;100551.66;7396379;19;20022;-61
2022/04/01 04:29:10;;;;;;;14.90;9.75;;;;;;;-0.83;100.00;100539.66;7422270;19;20043;-63
2022/04/01 04:32:03;;;;;;;14.70;10.63;;;;;;;-0.75;100.00;100548.22;7396348;19;20095;-62
2022/04/01 04:34:38;;;;;;;16.23;10.10;;;;;;;-0.77;100.00;100555.94;7394282;19;20018;-59
2022/04/01 04:37:10;;;;;;;13.57;9.95;;;;;;;-0.72;100.00;100549.09;7395930;19;20032;-60
2022/04/01 04:39:46;;;;;;;15.45;9.80;;;;;;;-0.77;100.00;100562.81;7394368;19;20011;-62
2022/04/01 04:42:18;;;;;;;13.25;9.40;;;;;;;-0.78;100.00;100561.09;7395253;19;20471;-59
2022/04/01 04:44:48;;;;;;;14.27;9.97;;;;;;;-0.79;100.00;100567.97;7393411;19;20337;-58
2022/04/01 04:47:25;;;;;;;13.20;9.63;;;;;;;-0.83;100.00;100566.25;7396752;19;20625;-58
2022/04/01 04:50:00;;;;;;;15.35;9.45;;;;;;;-0.75;100.00;100574.78;7393858;19;20340;-60
2022/04/01 04:52:32;;;;;;;13.65;9.68;;;;;;;-0.78;100.00;100572.22;7394626;19;20021;-62
2022/04/01 04:55:06;;;;;;;12.52;9.05;;;;;;;-0.83;100.00;100575.66;7396454;19;20014;-61
2022/04/01 04:57:46;;;;;;;14.23;8.90;;;;;;;-0.76;100.00;100583.41;7395047;19;20064;-62
2022/04/01 05:00:19;;;;;;;11.23;7.85;;;;;;;-0.78;100.00;100579.09;7393645;19;20026;-62
2022/04/01 05:03:20;;;;;;;11.07;7.85;;;;;;;-0.82;100.00;100590.25;7394127;19;20626;-62
2022/04/01 05:05:54;;;;;;;;;;;;;;;-0.83;100.00;100591.97;7400663;19;20018;-62
2022/04/01 05:08:44;;;;;;;10.82;7.45;;;;;;;-0.86;99.82;100604.81;7397424;19;19929;-61
2022/04/01 05:11:46;;;;;;;11.70;8.45;;;;;;;-0.95;99.39;100609.97;7397168;19;20019;-62
2022/04/01 05:14:35;;;;;;;12.35;8.73;;;;;;;-0.88;100.00;100609.13;7393778;19;20018;-63
2022/04/01 05:17:06;;;;;;;12.35;7.95;;;;;;;-0.85;99.45;100616.81;7396682;19;20049;-62
2022/04/01 05:19:38;;;;;;;12.03;8.10;;;;;;;-0.88;99.52;100619.41;7394885;19;20029;-62
2022/04/01 05:22:11;;;;;;;12.93;8.60;;;;;;;-0.84;99.75;100622.84;7396468;19;20735;-63
2022/04/01 05:24:55;;;;;;;12.10;7.65;;;;;;;-0.82;99.67;100626.25;7395185;19;20011;-63
2022/04/01 05:27:28;;;;;;;13.13;8.57;;;;;;;-0.82;99.32;100628.84;7394997;19;20025;-61
2022/04/01 05:30:17;;;;;;;12.82;7.72;;;;;;;-0.82;99.48;100633.97;7392395;19;20499;-63
2022/04/01 05:33:08;;;;;;;11.23;7.40;;;;;;;-0.87;98.76;100639.13;7392517;19;20011;-61
2022/04/01 05:35:40;;;;;;;13.82;7.43;;;;;;;-0.88;99.14;100642.56;7391383;19;20011;-63
2022/04/01 05:38:14;;;;;;;12.32;7.07;;;;;;;-0.81;99.01;100641.69;7393686;19;20014;-62
2022/04/01 05:40:43;;;;;;;11.50;7.35;;;;;;;-0.79;98.56;100658.00;7391496;19;20030;-62
2022/04/01 05:43:16;;;;;;;12.57;7.43;;;;;;;-0.84;98.47;100652.00;7393679;19;20166;-61
2022/04/01 05:46:06;;;;;;;13.00;6.72;;;;;;;-0.80;98.82;100656.28;7395210;19;20448;-62
2022/04/01 05:48:35;;;;;;;14.00;7.22;;;;;;;-0.73;99.36;100658.00;7393102;19;20053;-63
2022/04/01 05:51:05;;;;;;;9.73;7.13;;;;;;;-0.78;98.73;100662.28;7391509;19;20012;-62
2022/04/01 05:53:41;;;;;;;11.80;7.32;;;;;;;-0.78;98.83;100662.28;7392162;19;20495;-62
2022/04/01 05:56:10;;;;;;;12.13;7.50;;;;;;;-0.70;99.21;100673.44;7391572;19;20121;-62
2022/04/01 05:58:39;;;;;;;12.20;7.30;;;;;;;-0.70;98.82;100673.44;7392231;19;20010;-62
2022/04/01 06:01:17;;;;;;;11.63;7.25;;;;;;;-0.67;99.33;100676.84;7391170;19;20114;-62
2022/04/01 06:04:19;;;;;;;12.48;7.45;;;;;;;-0.66;99.31;100676.88;7392191;19;20010;-62
2022/04/01 06:06:51;;;;;;;12.05;6.93;;;;;;;-0.75;98.34;100676.84;7391840;19;20017;-59
2022/04/01 06:09:37;;;;;;;13.40;7.00;;;;;;;-0.66;98.78;100686.28;7391838;19;20011;-60
2022/04/01 06:12:41;;;;;;;13.13;7.47;;;;;;;-0.64;98.91;100692.31;7393513;19;20010;-61
2022/04/01 06:15:34;;;;;;;11.65;6.57;;;;;;;-0.60;98.20;100696.56;7394664;19;20074;-60
2022/04/01 06:18:39;;;;;;;13.82;7.78;;;;;;;-0.59;98.98;100691.44;7393066;19;20499;-61
2022/04/01 06:21:11;;;;;;;11.48;7.22;;;;;;;-0.56;99.04;100704.31;7390046;19;20038;-62
2022/04/01 06:23:53;;;;;;;11.93;6.90;;;;;;;-0.66;97.68;100701.72;7390373;19;20110;-61
2022/04/01 06:26:27;;;;;;;13.43;6.95;;;;;;;-0.61;98.31;100702.59;7392912;19;20497;-61
2022/04/01 06:29:05;;;;;;;14.05;6.75;;;;;;;-0.55;98.68;100712.88;7418246;19;20014;-64
2022/04/01 06:31:34;;;;;;;10.57;6.38;;;;;;;-0.54;98.06;100730.03;7394534;19;20099;-62
2022/04/01 06:34:07;;;;;;;10.38;6.78;;;;;;;-0.48;97.65;100716.31;7390529;19;20360;-60
2022/04/01 06:37:03;;;;;;;10.23;6.43;;;;;;;-0.54;97.28;100724.91;7392556;19;20107;-62
2022/04/01 06:39:45;;;;;;;11.30;6.60;;;;;;;-0.51;97.78;100722.31;7390726;19;20011;-62
2022/04/01 06:42:22;;;;;;;10.88;6.68;;;;;;;-0.51;97.38;100731.75;7389506;19;20023;-62
2022/04/01 06:44:54;;;;;;;10.68;6.35;;;;;;;-0.54;97.42;100722.31;7393405;19;20159;-62
2022/04/01 06:47:44;;;;;;;13.35;6.22;;;;;;;-0.54;97.93;100727.47;7391781;19;20038;-61
2022/04/01 06:50:16;;;;;;;11.70;6.45;;;;;;;-0.58;97.91;100741.19;7390478;19;20731;-61
2022/04/01 06:53:04;;;;;;;10.70;6.22;;;;;;;-0.48;99.26;100747.19;7391341;19;20022;-61
2022/04/01 06:55:52;;;;;;;10.73;6.32;;;;;;;-0.50;98.79;100752.34;7393682;19;20019;-61
2022/04/01 06:58:30;;;;;;;11.40;6.43;;;;;;;-0.36;99.02;100742.91;7393117;19;20302;-60
2022/04/01 07:01:04;;;;;;;11.55;6.28;;;;;;;-0.47;98.33;100748.91;7392720;19;20015;-61
2022/04/01 07:03:35;;;;;;;11.02;6.70;;;;;;;-0.39;98.95;100765.19;7391693;19;20021;-62
2022/04/01 07:06:06;;;;;;;9.63;6.88;;;;;;;-0.40;98.52;100759.22;7392580;19;20108;-58
2022/04/01 07:08:35;;;;;;;12.68;6.75;;;;;;;-0.34;98.92;100760.94;7393222;19;20018;-59
2022/04/01 07:11:04;;;;;;;10.57;6.65;;;;;;;-0.40;97.79;100758.31;7392449;19;20011;-60
2022/04/01 07:13:36;;;;;;;10.52;6.32;;;;;;;-0.39;97.59;100763.50;7392711;19;20479;-57
2022/04/01 07:16:06;;;;;;;10.38;6.85;;;;;;;-0.32;97.64;100766.06;7392080;19;20026;-59
2022/04/01 07:18:36;;;;;;;11.98;6.47;;;;;;;-0.25;98.02;100770.34;7391172;19;20018;-59
2022/04/01 07:21:05;;;;;;;13.52;6.57;;;;;;;-0.32;97.60;100776.38;7386698;19;20434;-62
2022/04/01 07:23:35;;;;;;;10.88;7.18;;;;;;;-0.35;97.67;100782.38;7388022;19;20046;-59
2022/04/01 07:26:04;;;;;;;9.90;6.25;;;;;;;-0.30;97.52;100779.78;7393914;19;20436;-60
2022/04/01 07:28:36;;;;;;;10.27;6.97;;;;;;;-0.34;97.67;100789.25;7373852;19;20018;-62
2022/04/01 07:32:29;;;;;;;11.13;6.03;;;;;;;-0.31;98.04;100788.38;7390523;19;20368;-62
2022/04/01 07:33:54;;;;;;;10.45;6.40;;;;;;;-0.38;97.12;100790.94;7390089;19;20042;-60
2022/04/01 07:36:23;;;;;;;10.02;6.20;;;;;;;-0.44;97.99;100783.22;7392247;19;20014;-61
2022/04/01 07:38:52;;;;;;;10.88;5.97;;;;;;;-0.45;97.92;100790.94;7391426;19;20025;-59
2022/04/01 07:41:20;;;;;;;8.82;5.57;;;;;;;-0.48;97.66;100788.38;7390242;19;20022;-56
2022/04/01 07:43:53;;;;;;;10.20;5.80;;;;;;;-0.39;98.12;100794.41;7390023;19;20133;-62
2022/04/01 07:46:22;;;;;;;;;;;;;;;-0.40;98.10;100794.38;7391425;19;20053;-60
2022/04/01 07:48:51;;;;;;;8.82;5.15;;;;;;;-0.34;98.01;100799.53;7390501;19;19918;-62
2022/04/01 07:51:19;;;;;;;12.90;5.57;;;;;;;-0.27;97.62;100811.56;7391356;19;20022;-62
2022/04/01 07:53:48;;;;;;;8.52;5.30;;;;;;;-0.26;97.83;100807.25;7388830;19;20010;-60
2022/04/01 07:56:17;;;;;;;8.93;5.47;;;;;;;-0.18;97.44;100801.25;7390859;19;20018;-62
2022/04/01 07:58:46;;;;;;;8.93;4.70;;;;;;;-0.21;96.31;100805.56;7391860;19;20022;-62
2022/04/01 08:01:17;;;;;;;7.90;4.80;;;;;;;-0.11;96.34;100807.25;7398372;19;20002;-62
2022/04/01 08:03:47;;;;;;;8.70;4.30;;;;;;;0.03;95.96;100806.38;7398134;19;20114;-61
2022/04/01 08:06:16;;;;;;;10.13;4.43;;;;;;;0.15;95.77;100811.53;7397916;19;20096;-62
2022/04/01 08:08:45;;;;;;;10.10;4.20;;;;;;;0.09;93.13;100812.38;7396248;19;20006;-60
2022/04/01 08:11:13;;;;;;;6.90;4.28;;;;;;;0.19;93.41;100820.97;7397718;19;20630;-60
2022/04/01 08:13:42;;;;;;;8.48;3.85;;;;;;;0.18;92.55;100811.50;7396014;19;20015;-61
2022/04/01 08:16:13;;;;;;;7.50;3.58;;;;;;;0.19;89.70;100814.94;7395873;19;20018;-58
2022/04/01 08:18:44;;;;;;;6.38;3.22;;;;;;;0.12;89.58;100821.84;7399503;19;20644;-59
2022/04/01 08:21:14;;;;;;;5.68;3.00;;;;;;;0.09;88.84;100819.28;7396881;19;20030;-59
2022/04/01 08:23:43;;;;;;;5.88;3.00;;;;;;;0.16;90.87;100814.09;7398330;19;20015;-58
2022/04/01 08:26:13;;;;;;;5.78;3.00;;;;;;;0.20;90.80;100826.97;7400168;19;20014;-60
2022/04/01 08:28:42;;;;;;;6.47;3.20;;;;;;;0.22;90.36;100820.97;7424033;19;20063;-61
2022/04/01 08:31:12;;;;;;;6.28;2.85;;;;;;;0.20;88.92;100838.16;7402066;19;20082;-59
2022/04/01 08:33:41;;;;;;;4.85;2.38;;;;;;;0.13;88.10;100832.13;7396526;19;20038;-59
2022/04/01 08:36:12;;;;;;;5.40;3.00;;;;;;;0.24;90.76;100837.25;7398475;19;20026;-58
2022/04/01 08:38:42;;;;;;;6.65;2.40;;;;;;;0.30;88.82;100838.97;7397650;19;20021;-58
2022/04/01 08:41:11;;;;;;;4.40;2.30;;;;;;;0.29;87.61;100845.00;7397142;19;20014;-63
2022/04/01 08:43:42;;;;;;;4.75;2.47;;;;;;;0.34;87.73;100844.16;7397526;19;20015;-61
2022/04/01 08:46:12;;;;;;;4.70;2.38;;;;;;;0.43;88.42;100851.00;7397834;19;20026;-60
2022/04/01 08:48:41;;;;;;;4.50;2.30;;;;;;;0.49;87.66;100857.88;7398036;19;20026;-61
2022/04/01 08:51:13;;;;;;;4.28;2.88;;;;;;;0.62;89.54;100856.97;7396005;19;20023;-60
2022/04/01 08:53:44;;;;;;;3.90;2.42;;;;;;;0.65;86.78;100861.25;7395234;19;20421;-60
2022/04/01 08:56:15;;;;;;;6.88;2.78;;;;;;;0.64;86.58;100862.13;7396859;19;20025;-60
2022/04/01 08:58:44;;;;;;;4.40;2.53;;;;;;;0.72;87.45;100862.97;7395377;19;20026;-62
2022/04/01 09:01:14;;;;;;;5.43;2.22;;;;;;;0.69;86.19;100871.56;7395889;19;20033;-61
2022/04/01 09:03:44;;;;;;;5.90;2.80;;;;;;;0.68;85.77;100868.97;7394389;19;20015;-60
2022/04/01 09:06:16;;;;;;;4.47;2.47;;;;;;;0.72;84.35;100872.41;7395723;19;20030;-60
2022/04/01 09:08:45;;;;;;;5.80;2.95;;;;;;;0.75;84.62;100873.25;7396449;19;20010;-63
2022/04/01 09:11:19;;;;;;;6.63;3.08;;;;;;;0.82;84.65;100881.84;7397722;19;20011;-61
2022/04/01 09:13:53;;;;;;;4.55;3.05;;;;;;;0.91;85.84;100889.53;7394467;19;20025;-63
2022/04/01 09:16:28;;;;;;;4.85;2.90;;;;;;;1.04;85.86;100892.94;7394070;19;20014;-62
2022/04/01 09:19:10;;;;;;;5.68;3.13;;;;;;;1.18;86.75;100896.31;7397183;19;20014;-60
2022/04/01 09:21:47;;;;;;;5.32;3.50;;;;;;;1.37;86.06;100904.81;7399295;19;20423;-62
2022/04/01 09:24:16;;;;;;;6.18;3.72;;;;;;;1.43;86.03;100908.25;7392614;19;20270;-59
2022/04/01 09:26:45;;;;;;;7.70;3.70;;;;;;;1.59;87.09;100916.78;7389956;19;20762;-62
2022/04/01 09:29:14;;;;;;;6.43;4.03;;;;;;;1.61;86.74;100923.66;7389840;19;20026;-62
2022/04/01 09:31:44;;;;;;;9.27;3.70;;;;;;;1.43;85.40;100916.00;7395649;19;20018;-60
2022/04/01 09:34:14;;;;;;;7.03;3.97;;;;;;;1.38;84.96;100921.19;7392705;19;20029;-62
2022/04/01 09:36:46;;;;;;;6.45;4.30;;;;;;;1.54;87.53;100911.63;7399068;19;20021;-59
2022/04/01 09:39:17;;;;;;;6.38;4.20;;;;;;;1.46;84.87;100915.97;7393322;19;20349;-61
2022/04/01 09:41:49;;;;;;;9.13;5.35;;;;;;;1.51;86.59;100922.00;7393752;19;20015;-61
2022/04/01 09:44:20;;;;;;;;;;;;;;;1.64;86.56;100926.22;7393195;19;20364;-60
2022/04/01 09:46:50;;;;;;;7.80;4.50;;;;;;;1.81;87.05;100918.38;7395659;19;20027;-60
2022/04/01 09:49:32;;;;;;;5.85;4.30;;;;;;;1.90;86.67;100926.03;7394169;19;20011;-57
2022/04/01 09:52:04;;;;;;;7.40;4.43;;;;;;;1.85;85.75;100925.22;7394255;19;20459;-61
2022/04/01 09:54:33;;;;;;;7.97;5.13;;;;;;;1.78;86.34;100927.84;7392135;19;20030;-60
2022/04/01 09:57:02;;;;;;;7.63;5.20;;;;;;;1.87;87.34;100935.56;7394526;19;20042;-64
2022/04/01 09:59:33;;;;;;;6.78;4.65;;;;;;;1.63;83.94;100928.81;7392902;19;20368;-63
2022/04/01 10:02:02;;;;;;;8.10;4.43;;;;;;;1.56;82.67;100922.81;7397231;19;20593;-60
2022/04/01 10:04:31;;;;;;;9.20;5.25;;;;;;;1.56;83.13;100933.13;7392487;19;20108;-63
2022/04/01 10:07:04;;;;;;;8.88;5.18;;;;;;;1.60;84.48;100934.84;7394888;19;20363;-62
2022/04/01 10:09:34;;;;;;;8.90;5.50;;;;;;;1.73;85.59;100931.34;7392934;19;20018;-61
2022/04/01 10:12:08;;;;;;;8.05;5.80;;;;;;;1.88;85.81;100935.53;7394127;19;20037;-63
2022/04/01 10:14:40;;;;;;;10.70;5.65;;;;;;;1.88;84.84;100934.69;7391998;19;20027;-62
2022/04/01 10:17:12;;;;;;;9.80;6.33;;;;;;;1.79;85.44;100939.91;7394212;19;20022;-61
2022/04/01 10:19:49;;;;;;;9.60;5.75;;;;;;;1.64;82.79;100933.97;7392402;19;20026;-63
2022/04/01 10:22:20;;;;;;;10.07;5.85;;;;;;;1.79;83.97;100929.56;7391535;19;20023;-60
2022/04/01 10:24:55;;;;;;;8.52;6.13;;;;;;;1.80;81.16;100934.72;7403129;19;20021;-61
2022/04/01 10:27:28;;;;;;;7.72;5.75;;;;;;;1.77;80.21;100933.91;7411428;19;20078;-62
2022/04/01 10:29:59;;;;;;;8.55;5.70;;;;;;;1.79;81.02;100942.47;7393327;19;20014;-61
2022/04/01 10:32:30;;;;;;;9.82;6.40;;;;;;;1.73;81.96;100951.13;7392204;19;20333;-62
2022/04/01 10:35:01;;;;;;;9.88;6.63;;;;;;;1.91;82.62;100942.41;7392793;19;20025;-61
2022/04/01 10:37:34;;;;;;;10.63;6.70;;;;;;;1.99;81.67;100943.22;7392560;19;20026;-61
2022/04/01 10:40:09;;;;;;;9.88;6.88;;;;;;;1.88;80.61;100951.03;7391646;19;20084;-62
2022/04/01 10:42:40;;;;;;;10.10;6.70;;;;;;;1.65;81.87;100947.75;7390618;19;20023;-62
2022/04/01 10:45:23;;;;;;;12.20;6.95;;;;;;;1.70;82.86;100953.72;7391439;19;20041;-62
2022/04/01 10:53:45;;;;;;;11.57;7.45;;;;;;;1.72;83.35;100957.19;7390721;19;20019;-62
2022/04/01 10:56:32;;;;;;;10.65;7.05;;;;;;;1.68;81.81;100952.91;7392722;19;20025;-62
2022/04/01 10:59:19;;;;;;;10.85;7.00;;;;;;;1.86;82.45;100962.25;7392127;19;20026;-63
2022/04/01 11:02:07;;;;;;;13.02;7.10;;;;;;;1.98;80.74;100961.34;7394774;19;20475;-62
2022/04/01 11:04:38;;;;;;;11.65;7.63;;;;;;;2.11;81.97;100957.78;7390844;19;20019;-60
2022/04/01 11:07:09;;;;;;;9.85;7.47;;;;;;;2.21;81.53;100959.44;7391888;19;20014;-63
2022/04/01 11:09:47;;;;;;;8.98;6.40;;;;;;;2.12;78.37;100963.81;7391930;19;20022;-61
2022/04/01 11:12:29;;;;;;;10.05;6.70;;;;;;;1.98;78.15;100966.50;7392230;19;20015;-59
2022/04/01 11:15:22;;;;;;;7.82;6.22;;;;;;;1.94;77.83;100959.63;7385177;19;20014;-59
2022/04/01 11:18:04;;;;;;;;;;;;;;;2.13;79.46;100971.53;7388292;19;20014;-60
2022/04/01 11:20:35;;;;;;;10.25;6.70;;;;;;;2.12;76.34;100977.59;7390416;19;20238;-63
2022/04/01 11:23:14;;;;;;;10.43;6.53;;;;;;;1.99;77.13;100984.59;7390063;19;20011;-62
2022/04/01 11:25:54;;;;;;;11.82;6.70;;;;;;;1.95;77.27;100987.16;7391349;19;20035;-62
2022/04/01 11:28:25;;;;;;;10.40;7.28;;;;;;;2.06;80.27;100982.78;7391156;19;20022;-63
2022/04/01 11:31:20;;;;;;;9.52;6.07;;;;;;;2.04;78.91;100987.97;7390190;19;20352;-60
2022/04/01 11:34:04;;;;;;;10.00;6.80;;;;;;;1.96;78.73;100988.91;7384012;19;20022;-62
2022/04/01 11:36:33;;;;;;;11.48;7.45;;;;;;;2.07;81.15;100993.13;7389828;19;20002;-61
2022/04/01 11:39:02;;;;;;;12.30;7.95;;;;;;;1.97;80.09;100996.63;7390022;19;20495;-61
2022/04/01 11:41:47;;;;;;;11.95;8.02;;;;;;;1.83;81.43;101004.47;7390453;19;20023;-61
2022/04/01 11:44:17;;;;;;;13.25;8.25;;;;;;;1.89;80.61;100994.13;7389123;19;20378;-62
2022/04/01 11:46:54;;;;;;;12.40;8.23;;;;;;;1.76;78.39;101000.19;7391004;19;20094;-60
2022/04/01 11:49:28;;;;;;;12.73;8.60;;;;;;;1.81;77.48;101001.03;7390614;19;20106;-60
2022/04/01 11:51:57;;;;;;;12.07;8.68;;;;;;;1.84;77.62;101007.91;7390740;19;20022;-59
2022/04/01 11:54:26;;;;;;;13.18;9.52;;;;;;;1.91;78.27;101007.03;7389612;19;20505;-59
2022/04/01 11:56:59;;;;;;;12.48;8.55;;;;;;;2.04;77.84;101008.66;7389970;19;20392;-60
2022/04/01 11:59:28;;;;;;;12.13;8.52;;;;;;;2.09;76.64;101008.63;7389982;19;20074;-61